Time;durP1;ratioP1;P1;durP2;ratioP2;P2;SDS_P1;SDS_P2;PMS_P1;PMS_P2;Temp;Humidity;BMP_temperature;BMP_pressure;BME280_temperature;BME280_humidity;BME280_pressure;Samples;Min_cycle;Max_cycle;Signal;HPM_P1;HPM_P2
2021/07/15 00:02:21;;;;;;;;;;;;;;;21.60;69.36;100409.16;1748172;82;20780;-77
2021/07/15 00:04:47;;;;;;;;;;;;;;;21.60;69.42;100413.95;1748525;82;20300;-76
2021/07/15 00:07:15;;;;;;;;;;;;;;;21.60;69.44;100413.11;1748769;82;20205;-76
2021/07/15 00:09:42;;;;;;;;;;;;;;;21.60;69.54;100417.91;1749643;82;20099;-77
2021/07/15 00:12:11;;;;;;;;;;;;;;;21.58;69.54;100416.31;1769620;80;20112;-76
2021/07/15 00:14:37;;;;;;;;;;;;;;;21.56;69.59;100419.05;1731470;81;20134;-76
2021/07/15 00:17:04;;;;;;;;;;;;;;;21.54;69.61;100422.25;1750148;81;20538;-77
2021/07/15 00:19:31;;;;;;;;;;;;;;;21.52;69.61;100418.87;1749487;82;20434;-76
2021/07/15 00:21:57;;;;;;;;;;;;;;;21.47;69.51;100403.85;1749746;82;20695;-76
2021/07/15 00:24:29;;;;;;;;;;;;;;;21.40;69.66;100409.13;1765349;80;20540;-76
2021/07/15 00:26:56;;;;;;;;;;;;;;;21.37;69.81;100415.91;1767054;80;20274;-76
2021/07/15 00:29:22;;;;;;;;;;;;;;;21.35;69.87;100423.05;1726813;81;20931;-76
2021/07/15 00:31:49;;;;;;;;;;;;;;;21.28;69.70;100417.36;1763567;80;20456;-76
2021/07/15 00:34:15;;;;;;;;;;;;;;;21.18;69.66;100399.60;1743203;81;20462;-76
2021/07/15 00:36:47;;;;;;;;;;;;;;;21.06;69.73;100385.44;1775780;80;20476;-76
2021/07/15 00:39:13;;;;;;;;;;;;;;;21.04;70.14;100379.44;1759166;80;20128;-76
2021/07/15 00:41:39;;;;;;;;;;;;;;;21.06;70.17;100377.08;1751576;80;20177;-76
2021/07/15 00:44:06;;;;;;;;;;;;;;;21.03;70.29;100372.02;1749451;80;20206;-76
2021/07/15 00:46:32;;;;;;;;;;;;;;;20.99;70.27;100374.94;1759281;80;20539;-76
2021/07/15 00:48:58;;;;;;;;;;;;;;;20.98;70.37;100377.19;1756080;80;20475;-77
2021/07/15 00:51:25;;;;;;;;;;;;;;;20.98;70.35;100374.56;1768461;79;20146;-76
2021/07/15 00:53:51;;;;;;;;;;;;;;;20.94;70.23;100369.13;1770700;80;20934;-76
2021/07/15 00:56:21;;;;;;;;;;;;;;;20.85;70.33;100356.55;1753146;81;20421;-76
2021/07/15 00:58:47;;;;;;;;;;;;;;;20.81;70.51;100357.22;1753531;81;20469;-76
2021/07/15 01:01:13;;;;;;;;;;;;;;;20.79;70.55;100359.13;1752894;81;20463;-77
2021/07/15 01:03:50;;;;;;;;;;;;;;;20.79;70.66;100357.81;1752404;81;21014;-77
2021/07/15 01:06:17;;;;;;;;;;;;;;;20.68;70.28;100354.53;1731295;81;20490;-76
2021/07/15 01:08:43;;;;;;;;;;;;;;;20.53;70.49;100362.05;1752506;81;20209;-76
2021/07/15 01:11:18;;;;;;;;;;;;;;;20.49;70.73;100360.55;1770603;80;20552;-76
2021/07/15 01:13:53;;;;;;;;;;;;;;;20.51;70.93;100370.95;1752381;79;20280;-76
2021/07/15 01:16:35;;;;;;;;;;;;;;;20.53;71.00;100373.86;1750731;81;20456;-77
2021/07/15 01:19:08;;;;;;;;;;;;;;;20.54;71.00;100378.65;1746956;81;20601;-76
2021/07/15 01:22:02;;;;;;;;;;;;;;;20.47;70.86;100372.45;1751452;81;20610;-76
2021/07/15 01:24:56;;;;;;;;;;;;;;;20.46;71.02;100371.23;1757805;80;20474;-77
2021/07/15 01:27:29;;;;;;;;;;;;;;;20.45;71.08;100372.17;1749150;80;20201;-77
2021/07/15 01:30:08;;;;;;;;;;;;;;;20.39;70.90;100373.39;1733747;81;20401;-77
2021/07/15 01:32:56;;;;;;;;;;;;;;;20.33;71.14;100372.41;1731637;82;20428;-76
2021/07/15 01:35:25;;;;;;;;;;;;;;;20.33;71.31;100375.50;1721039;82;20158;-76
2021/07/15 01:37:54;;;;;;;;;;;;;;;20.33;71.47;100371.56;1736188;82;20391;-76
2021/07/15 01:40:23;;;;;;;;;;;;;;;20.32;71.41;100364.16;1735534;81;20091;-76
2021/07/15 01:42:53;;;;;;;;;;;;;;;20.28;71.37;100364.43;1755508;81;20410;-76
2021/07/15 01:45:21;;;;;;;;;;;;;;;20.23;71.35;100366.05;1753987;81;20712;-76
2021/07/15 01:47:47;;;;;;;;;;;;;;;20.21;71.56;100361.83;1755499;81;20402;-76
2021/07/15 01:50:13;;;;;;;;;;;;;;;20.22;71.68;100366.98;1712539;82;20128;-76
2021/07/15 01:52:40;;;;;;;;;;;;;;;20.23;71.74;100369.14;1756380;80;20392;-76
2021/07/15 01:55:06;;;;;;;;;;;;;;;20.23;71.75;100373.93;1766694;80;20118;-76
2021/07/15 01:57:32;;;;;;;;;;;;;;;20.24;71.81;100371.68;1762629;80;20177;-76
2021/07/15 01:59:59;;;;;;;;;;;;;;;20.24;71.77;100368.20;1738671;81;20216;-76
2021/07/15 02:02:27;;;;;;;;;;;;;;;20.22;71.76;100364.83;1760228;80;20100;-76
2021/07/15 02:04:55;;;;;;;;;;;;;;;20.18;71.74;100367.27;1760786;80;20100;-76
2021/07/15 02:07:23;;;;;;;;;;;;;;;20.16;71.89;100369.52;1759649;80;20140;-76
2021/07/15 02:09:50;;;;;;;;;;;;;;;20.16;71.92;100369.98;1744776;81;20427;-76
2021/07/15 02:12:29;;;;;;;;;;;;;;;20.16;71.99;100372.60;1759813;80;20136;-76
2021/07/15 02:14:56;;;;;;;;;;;;;;;20.12;71.87;100375.87;1759281;80;20234;-76
2021/07/15 02:17:23;;;;;;;;;;;;;;;20.07;71.87;100368.74;1759325;81;20452;-76
2021/07/15 02:19:58;;;;;;;;;;;;;;;19.98;72.03;100366.66;1754404;81;20219;-76
2021/07/15 02:22:24;;;;;;;;;;;;;;;19.99;72.18;100372.28;1759264;80;20184;-76
2021/07/15 02:24:50;;;;;;;;;;;;;;;19.99;72.21;100370.13;1757719;80;20229;-76
2021/07/15 02:27:17;;;;;;;;;;;;;;;19.98;72.28;100369.75;1759189;80;20290;-76
2021/07/15 02:29:43;;;;;;;;;;;;;;;19.91;72.09;100371.05;1759081;81;20212;-76
2021/07/15 02:32:13;;;;;;;;;;;;;;;19.85;72.21;100370.93;1760702;80;20191;-76
2021/07/15 02:34:42;;;;;;;;;;;;;;;19.80;72.23;100374.29;1759456;81;20221;-76
2021/07/15 02:37:10;;;;;;;;;;;;;;;19.79;72.39;100375.22;1751280;80;20429;-76
2021/07/15 02:39:37;;;;;;;;;;;;;;;19.78;72.41;100377.47;1758442;81;20119;-76
2021/07/15 02:42:03;;;;;;;;;;;;;;;19.77;72.61;100385.80;1759112;81;20230;-76
2021/07/15 02:44:31;;;;;;;;;;;;;;;19.78;72.62;100393.20;1758964;81;20196;-76
2021/07/15 02:46:57;;;;;;;;;;;;;;;19.77;72.60;100395.45;1758835;80;20496;-76
2021/07/15 02:49:24;;;;;;;;;;;;;;;19.74;72.61;100391.27;1758864;81;20120;-76
2021/07/15 02:51:50;;;;;;;;;;;;;;;19.76;72.89;100391.98;1748725;80;20271;-76
2021/07/15 02:54:16;;;;;;;;;;;;;;;19.78;72.87;100384.02;1723650;82;20254;-76
2021/07/15 02:57:05;;;;;;;;;;;;;;;19.78;72.95;100384.02;1717489;82;20163;-76
2021/07/15 02:59:36;;;;;;;;;;;;;;;19.81;72.84;100383.85;1711026;82;20218;-77
2021/07/15 03:02:11;;;;;;;;;;;;;;;19.80;72.88;100380.38;1717913;82;20247;-76
2021/07/15 03:04:51;;;;;;;;;;;;;;;19.80;73.14;100380.38;1708177;82;20219;-76
2021/07/15 03:07:18;;;;;;;;;;;;;;;19.83;73.08;100382.83;1697877;82;20574;-76
2021/07/15 03:09:47;;;;;;;;;;;;;;;19.83;73.04;100385.92;1717517;82;20242;-76
2021/07/15 03:12:16;;;;;;;;;;;;;;;19.86;73.27;100384.43;1724511;82;20535;-76
2021/07/15 03:14:46;;;;;;;;;;;;;;;19.89;73.18;100389.50;1718406;82;20191;-76
2021/07/15 03:17:18;;;;;;;;;;;;;;;19.92;73.31;100391.10;1717447;82;20585;-76
2021/07/15 03:19:50;;;;;;;;;;;;;;;19.92;73.25;100392.41;1719777;82;20167;-76
2021/07/15 03:22:17;;;;;;;;;;;;;;;19.96;73.44;100397.86;1719469;82;20549;-76
2021/07/15 03:24:49;;;;;;;;;;;;;;;19.99;73.50;100397.69;1719782;82;20160;-76
2021/07/15 03:27:29;;;;;;;;;;;;;;;20.04;73.46;100407.45;1714861;82;20136;-76
2021/07/15 03:29:58;;;;;;;;;;;;;;;20.06;73.51;100411.67;1719910;82;20120;-76
2021/07/15 03:32:25;;;;;;;;;;;;;;;20.09;73.46;100412.81;1715704;82;20120;-76
2021/07/15 03:34:52;;;;;;;;;;;;;;;20.09;73.53;100405.41;1716835;82;20152;-76
2021/07/15 03:37:20;;;;;;;;;;;;;;;20.12;73.59;100406.07;1698817;82;38477;-76
2021/07/15 03:39:48;;;;;;;;;;;;;;;20.16;73.65;100411.52;1725992;82;20451;-76
2021/07/15 03:42:15;;;;;;;;;;;;;;;20.19;73.64;100405.23;1719492;82;20112;-76
2021/07/15 03:44:41;;;;;;;;;;;;;;;20.21;73.55;100400.74;1719051;82;20155;-76
2021/07/15 03:47:09;;;;;;;;;;;;;;;20.21;73.66;100396.80;1719321;82;20144;-76
2021/07/15 03:49:36;;;;;;;;;;;;;;;20.24;73.71;100395.31;1719466;82;20128;-76
2021/07/15 03:52:05;;;;;;;;;;;;;;;20.22;73.65;100394.56;1720868;81;21305;-76
2021/07/15 03:54:31;;;;;;;;;;;;;;;20.26;73.71;100397.38;1748024;81;20089;-76
2021/07/15 03:56:58;;;;;;;;;;;;;;;20.25;73.68;100399.63;1747949;82;20152;-76
2021/07/15 03:59:27;;;;;;;;;;;;;;;20.30;73.80;100405.42;1747370;79;20204;-76
2021/07/15 04:01:59;;;;;;;;;;;;;;;20.30;73.66;100402.79;1735592;82;20168;-76
2021/07/15 04:04:28;;;;;;;;;;;;;;;20.27;73.74;100409.57;1762268;81;20172;-76
2021/07/15 04:06:54;;;;;;;;;;;;;;;20.28;73.78;100406.45;1740635;81;20209;-76
2021/07/15 04:09:21;;;;;;;;;;;;;;;20.30;73.81;100405.42;1766969;80;20181;-76
2021/07/15 04:11:47;;;;;;;;;;;;;;;20.31;73.87;100404.48;1752298;81;20170;-76
2021/07/15 04:14:17;;;;;;;;;;;;;;;20.35;73.99;100407.30;1767214;80;20489;-76
2021/07/15 04:17:02;;;;;;;;;;;;;;;20.40;74.05;100401.34;1752456;80;20193;-77
2021/07/15 04:19:29;;;;;;;;;;;;;;;20.44;74.07;100405.47;1749475;80;20220;-76
2021/07/15 04:21:57;;;;;;;;;;;;;;;20.48;73.97;100408.30;1769560;80;20197;-76
2021/07/15 04:24:24;;;;;;;;;;;;;;;20.51;74.03;100406.42;1747975;81;20184;-76
2021/07/15 04:26:51;;;;;;;;;;;;;;;20.53;74.11;100411.95;1765301;80;20440;-76
2021/07/15 04:29:18;;;;;;;;;;;;;;;20.59;74.11;100410.74;1766752;80;20218;-76
2021/07/15 04:32:06;;;;;;;;;;;;;;;20.62;74.18;100406.14;1751905;81;20220;-76
2021/07/15 04:34:35;;;;;;;;;;;;;;;20.67;74.14;100407.18;1726767;81;20198;-76
2021/07/15 04:37:02;;;;;;;;;;;;;;;20.68;73.87;100412.81;1753021;81;20250;-76
2021/07/15 04:39:28;;;;;;;;;;;;;;;20.65;74.14;100419.09;1737340;80;20180;-76
2021/07/15 04:41:57;;;;;;;;;;;;;;;20.69;74.02;100421.07;1739765;81;20194;-76
2021/07/15 04:44:24;;;;;;;;;;;;;;;20.67;74.12;100420.31;1768626;79;20162;-76
2021/07/15 04:46:51;;;;;;;;;;;;;;;20.72;74.28;100418.26;1707753;82;20184;-76
2021/07/15 04:49:19;;;;;;;;;;;;;;;20.78;74.34;100423.14;1763314;79;20200;-76
2021/07/15 04:51:47;;;;;;;;;;;;;;;20.86;74.45;100422.64;1756369;80;20179;-76
2021/07/15 04:54:14;;;;;;;;;;;;;;;20.95;74.48;100422.07;1753216;80;20166;-76
2021/07/15 04:56:40;;;;;;;;;;;;;;;21.01;74.34;100426.48;1749301;81;20189;-77
2021/07/15 04:59:07;;;;;;;;;;;;;;;21.03;74.28;100425.07;1741817;80;20228;-76
2021/07/15 05:01:33;;;;;;;;;;;;;;;21.09;74.50;100429.95;1752834;80;20179;-76
2021/07/15 05:03:59;;;;;;;;;;;;;;;21.14;74.30;100433.98;1710016;82;20194;-76
2021/07/15 05:06:25;;;;;;;;;;;;;;;21.15;74.17;100436.14;1761951;80;20185;-76
2021/07/15 05:08:51;;;;;;;;;;;;;;;21.17;74.26;100436.89;1750404;80;20249;-76
2021/07/15 05:11:17;;;;;;;;;;;;;;;21.19;74.39;100435.48;1758458;80;20288;-76
2021/07/15 05:13:43;;;;;;;;;;;;;;;21.25;74.29;100439.91;1746730;80;20166;-76
2021/07/15 05:16:09;;;;;;;;;;;;;;;21.23;74.19;100442.27;1756619;81;20196;-76
2021/07/15 05:18:36;;;;;;;;;;;;;;;21.23;74.14;100444.42;1746687;80;20212;-76
2021/07/15 05:21:03;;;;;;;;;;;;;;;21.23;74.16;100442.27;1750394;80;20166;-76
2021/07/15 05:23:29;;;;;;;;;;;;;;;21.26;74.29;100443.39;1757900;80;20129;-76
2021/07/15 05:25:56;;;;;;;;;;;;;;;21.27;74.08;100440.66;1759889;80;20100;-76
2021/07/15 05:28:23;;;;;;;;;;;;;;;21.30;74.20;100439.63;1762707;80;20160;-76
2021/07/15 05:30:49;;;;;;;;;;;;;;;21.35;74.21;100453.30;1745663;80;20122;-76
2021/07/15 05:33:15;;;;;;;;;;;;;;;21.38;74.27;100451.79;1758637;80;20206;-76
2021/07/15 05:35:42;;;;;;;;;;;;;;;21.45;74.43;100457.03;1755819;80;20104;-76
2021/07/15 05:38:08;;;;;;;;;;;;;;;21.48;74.24;100447.63;1744656;80;20126;-76
2021/07/15 05:40:35;;;;;;;;;;;;;;;21.52;74.30;100441.23;1757020;80;20116;-76
2021/07/15 05:43:03;;;;;;;;;;;;;;;21.58;74.14;100436.89;1755748;80;20086;-76
2021/07/15 05:45:30;;;;;;;;;;;;;;;21.61;74.24;100432.75;1728379;81;20199;-77
2021/07/15 05:47:56;;;;;;;;;;;;;;;21.74;74.37;100439.38;1518994;83;10018744;-76
2021/07/15 05:50:23;;;;;;;;;;;;;;;21.81;73.95;100435.41;1720752;82;20085;-76
2021/07/15 05:52:49;;;;;;;;;;;;;;;21.83;74.20;100441.89;1735650;80;20186;-76
2021/07/15 05:55:15;;;;;;;;;;;;;;;21.82;74.17;100442.36;1721001;82;20278;-76
2021/07/15 05:57:40;;;;;;;;;;;;;;;21.86;74.18;100437.70;1723811;82;20213;-76
2021/07/15 06:00:10;;;;;;;;;;;;;;;21.91;74.14;100434.30;1698462;83;20263;-76
2021/07/15 06:02:36;;;;;;;;;;;;;;;21.97;74.22;100432.11;1689687;83;20241;-75
2021/07/15 06:05:02;;;;;;;;;;;;;;;22.03;74.30;100427.78;1717412;82;20296;-75
2021/07/15 06:07:28;;;;;;;;;;;;;;;22.18;74.33;100429.87;1664220;83;20223;-75
2021/07/15 06:09:57;;;;;;;;;;;;;;;22.33;74.22;100423.58;1714009;82;20176;-75
2021/07/15 06:12:23;;;;;;;;;;;;;;;22.47;74.15;100421.28;1694905;83;20900;-75
2021/07/15 06:14:49;;;;;;;;;;;;;;;22.63;74.14;100418.44;1721372;82;20191;-76
2021/07/15 06:17:16;;;;;;;;;;;;;;;22.78;73.96;100420.89;1703563;83;20529;-76
2021/07/15 06:19:42;;;;;;;;;;;;;;;22.86;73.65;100428.74;1725196;82;20226;-76
2021/07/15 06:22:08;;;;;;;;;;;;;;;22.86;73.72;100428.74;1715095;82;20190;-76
2021/07/15 06:24:34;;;;;;;;;;;;;;;22.85;73.65;100429.70;1715071;82;20206;-76
2021/07/15 06:27:00;;;;;;;;;;;;;;;22.81;73.59;100422.47;1700596;82;20219;-76
2021/07/15 06:29:27;;;;;;;;;;;;;;;22.83;73.83;100417.94;1680875;85;20252;-76
2021/07/15 06:31:53;;;;;;;;;;;;;;;22.87;73.50;100426.00;1667272;85;20984;-76
2021/07/15 06:34:19;;;;;;;;;;;;;;;22.81;73.48;100415.88;1663560;85;20252;-75
2021/07/15 06:36:48;;;;;;;;;;;;;;;22.74;73.59;100419.86;1709067;82;20200;-75
2021/07/15 06:39:14;;;;;;;;;;;;;;;22.73;73.63;100424.77;1700913;82;20210;-75
2021/07/15 06:41:40;;;;;;;;;;;;;;;22.82;73.91;100428.59;1724581;82;20208;-75
2021/07/15 06:44:09;;;;;;;;;;;;;;;22.97;73.74;100427.01;1702538;82;20190;-75
2021/07/15 06:46:38;;;;;;;;;;;;;;;23.03;73.35;100427.05;1709440;82;20164;-75
2021/07/15 06:49:02;;;;;;;;;;;;;;;23.03;73.44;100433.17;1725436;82;20125;-75
2021/07/15 06:51:28;;;;;;;;;;;;;;;23.04;73.50;100433.54;1705027;82;20123;-75
2021/07/15 06:53:55;;;;;;;;;;;;;;;23.14;73.53;100427.14;1743296;81;20090;-75
2021/07/15 06:56:31;;;;;;;;;;;;;;;;;;;;;
2021/07/15 06:59:21;;;;;;;;;;;;;;;23.31;73.11;100425.94;1679458;81;56811;-91
2021/07/15 07:01:47;;;;;;;;;;;;;;;23.44;73.45;100416.98;1693509;83;20536;-92
2021/07/15 07:04:13;;;;;;;;;;;;;;;23.63;73.35;100427.09;1674308;84;20518;-92
2021/07/15 07:06:42;;;;;;;;;;;;;;;23.74;73.18;100423.19;1655266;85;20219;-91
2021/07/15 07:09:09;;;;;;;;;;;;;;;23.81;73.15;100428.86;1663257;85;20224;-89
2021/07/15 07:11:35;;;;;;;;;;;;;;;23.96;73.15;100422.88;1681433;83;20715;-89
2021/07/15 07:14:01;;;;;;;;;;;;;;;24.07;73.02;100415.84;1678193;84;20291;-89
2021/07/15 07:16:27;;;;;;;;;;;;;;;24.19;73.00;100412.75;1678621;83;20477;-89
2021/07/15 07:18:53;;;;;;;;;;;;;;;24.31;72.92;100413.17;1640472;86;20239;-89
2021/07/15 07:21:21;;;;;;;;;;;;;;;24.47;72.75;100417.25;1673192;85;20194;-86
2021/07/15 07:23:47;;;;;;;;;;;;;;;24.47;72.67;100411.48;1658437;85;20269;-86
2021/07/15 07:26:17;;;;;;;;;;;;;;;24.47;72.36;100410.16;1663001;85;20361;-85
2021/07/15 07:28:43;;;;;;;;;;;;;;;24.48;72.58;100409.69;1674549;84;20452;-86
2021/07/15 07:31:09;;;;;;;;;;;;;;;24.58;72.61;100408.86;1672934;84;20491;-85
2021/07/15 07:33:35;;;;;;;;;;;;;;;24.69;72.64;100410.19;1671831;84;20140;-85
2021/07/15 07:36:01;;;;;;;;;;;;;;;24.71;72.46;100409.59;1665911;84;20290;-85
2021/07/15 07:38:27;;;;;;;;;;;;;;;24.72;72.27;100405.98;1648819;85;20885;-85
2021/07/15 07:40:53;;;;;;;;;;;;;;;24.71;72.22;100411.39;1667946;85;20827;-85
2021/07/15 07:43:19;;;;;;;;;;;;;;;24.71;72.27;100405.63;1669699;84;20435;-85
2021/07/15 07:45:47;;;;;;;;;;;;;;;25.10;72.69;100415.34;1670420;84;20184;-84
2021/07/15 07:48:13;;;;;;;;;;;;;;;25.64;72.72;100423.30;1667354;84;20148;-85
2021/07/15 07:50:39;;;;;;;;;;;;;;;26.16;72.55;100422.08;1671720;84;20617;-84
2021/07/15 07:53:05;;;;;;;;;;;;;;;26.69;71.93;100420.17;1675297;84;20330;-86
2021/07/15 07:55:31;;;;;;;;;;;;;;;27.10;71.80;100413.91;1662995;85;20463;-86
2021/07/15 07:57:59;;;;;;;;;;;;;;;27.60;71.52;100417.37;1656877;85;20168;-86
2021/07/15 08:00:25;;;;;;;;;;;;;;;27.84;71.29;100417.45;1669883;84;20224;-89
2021/07/15 08:02:51;;;;;;;;;;;;;;;28.10;71.27;100424.34;1681717;83;20203;-90
2021/07/15 08:05:19;;;;;;;;;;;;;;;28.18;70.91;100425.30;1679927;83;20671;-90
2021/07/15 08:07:47;;;;;;;;;;;;;;;28.38;70.85;100431.47;1676017;84;20141;-88
2021/07/15 08:10:15;;;;;;;;;;;;;;;28.51;70.78;100437.80;1673980;84;20151;-88
2021/07/15 08:12:41;;;;;;;;;;;;;;;28.58;70.25;100443.73;1648981;85;20599;-88
2021/07/15 08:15:09;;;;;;;;;;;;;;;28.50;70.25;100445.44;1700459;83;20460;-88
2021/07/15 08:17:36;;;;;;;;;;;;;;;28.36;70.19;100441.41;1701946;83;20201;-87
2021/07/15 08:20:05;;;;;;;;;;;;;;;28.20;69.97;100451.27;1698090;83;20456;-86
2021/07/15 08:22:31;;;;;;;;;;;;;;;27.97;69.94;100448.09;1700923;83;20221;-86
2021/07/15 08:24:57;;;;;;;;;;;;;;;27.90;70.08;100441.66;1708489;82;20181;-87
2021/07/15 08:27:23;;;;;;;;;;;;;;;28.07;70.12;100442.77;1695204;82;20996;-85
2021/07/15 08:29:49;;;;;;;;;;;;;;;28.30;69.83;100452.12;1675151;84;20235;-85
2021/07/15 08:32:15;;;;;;;;;;;;;;;28.43;69.55;100451.83;1696997;83;20521;-85
2021/07/15 08:34:41;;;;;;;;;;;;;;;28.45;69.26;100445.03;1706228;83;20547;-85
2021/07/15 08:37:07;;;;;;;;;;;;;;;28.43;69.27;100448.33;1716728;82;20782;-85
2021/07/15 08:39:34;;;;;;;;;;;;;;;28.28;69.22;100459.89;1704394;82;20528;-85
2021/07/15 08:42:01;;;;;;;;;;;;;;;28.20;69.34;100467.70;1704787;82;20205;-85
2021/07/15 08:44:28;;;;;;;;;;;;;;;28.26;69.35;100460.53;1702626;82;20444;-85
2021/07/15 08:46:57;;;;;;;;;;;;;;;28.44;69.33;100472.13;1701896;82;20469;-85
2021/07/15 08:49:24;;;;;;;;;;;;;;;28.55;68.99;100468.46;1706543;82;20181;-85
2021/07/15 08:51:50;;;;;;;;;;;;;;;28.40;68.72;100471.22;1709275;82;20519;-85
2021/07/15 08:54:17;;;;;;;;;;;;;;;28.38;68.71;100473.18;1701365;84;20573;-85
2021/07/15 08:56:44;;;;;;;;;;;;;;;28.33;68.77;100473.12;1702103;84;20162;-85
2021/07/15 08:59:12;;;;;;;;;;;;;;;28.39;68.67;100478.85;1711472;82;20082;-85
2021/07/15 09:01:47;;;;;;;;;;;;;;;28.52;68.63;100484.22;1700770;83;20461;-86
2021/07/15 09:04:14;;;;;;;;;;;;;;;28.66;68.32;100481.08;1694185;84;20512;-85
2021/07/15 09:06:41;;;;;;;;;;;;;;;28.74;68.13;100488.34;1695357;83;20127;-86
2021/07/15 09:09:09;;;;;;;;;;;;;;;28.88;67.79;100479.92;1700365;83;20434;-86
2021/07/15 09:11:35;;;;;;;;;;;;;;;29.12;67.80;100489.20;1699010;83;20588;-85
2021/07/15 09:14:01;;;;;;;;;;;;;;;29.42;67.62;100500.93;1694277;83;20426;-85
2021/07/15 09:16:27;;;;;;;;;;;;;;;29.91;67.14;100504.94;1686552;84;20091;-85
2021/07/15 09:19:05;;;;;;;;;;;;;;;29.89;67.14;100507.41;1696638;83;20414;-86
2021/07/15 09:21:35;;;;;;;;;;;;;;;29.82;67.04;100513.84;1695806;83;20234;-86
2021/07/15 09:24:04;;;;;;;;;;;;;;;29.86;67.31;100511.22;1702436;83;20475;-88
2021/07/15 09:26:31;;;;;;;;;;;;;;;29.61;66.84;100511.48;1677586;84;20202;-88
2021/07/15 09:29:15;;;;;;;;;;;;;;;29.58;66.94;100515.77;1696921;83;20556;-88
2021/07/15 09:31:56;;;;;;;;;;;;;;;29.50;66.82;100519.67;1693875;83;20604;-88
2021/07/15 09:34:23;;;;;;;;;;;;;;;29.58;66.62;100518.94;1696292;84;20152;-88
2021/07/15 09:36:51;;;;;;;;;;;;;;;29.65;66.46;100521.31;1687285;83;20510;-88
2021/07/15 09:39:19;;;;;;;;;;;;;;;29.61;66.16;100538.63;1707474;83;20717;-88
2021/07/15 09:42:08;;;;;;;;;;;;;;;29.42;65.78;100534.23;1704618;83;20134;-88
2021/07/15 09:44:35;;;;;;;;;;;;;;;29.29;65.88;100536.36;1700466;83;20241;-88
2021/07/15 09:47:04;;;;;;;;;;;;;;;29.24;65.68;100547.45;1693421;83;20214;-87
2021/07/15 09:49:35;;;;;;;;;;;;;;;29.13;65.40;100536.98;1703704;83;20517;-89
2021/07/15 09:52:03;;;;;;;;;;;;;;;28.87;65.31;100542.13;1694948;82;20220;-87
2021/07/15 09:54:29;;;;;;;;;;;;;;;28.65;65.23;100539.77;1700991;83;20161;-87
2021/07/15 09:56:56;;;;;;;;;;;;;;;28.59;65.35;100541.20;1695604;83;20130;-87
2021/07/15 09:59:22;;;;;;;;;;;;;;;28.50;65.39;100547.38;1698520;84;20485;-88
2021/07/15 10:01:53;;;;;;;;;;;;;;;28.37;65.25;100549.97;1687097;83;20495;-87
2021/07/15 10:04:24;;;;;;;;;;;;;;;28.34;65.22;100566.55;1672204;84;20479;-88
2021/07/15 10:06:51;;;;;;;;;;;;;;;28.25;64.80;100564.73;1675082;85;20538;-88
2021/07/15 10:09:38;;;;;;;;;;;;;;;28.13;64.98;100570.28;1670076;84;20498;-91
2021/07/15 10:12:16;;;;;;;;;;;;;;;28.00;64.90;100572.75;1655841;84;20173;-92
2021/07/15 10:14:42;;;;;;;;;;;;;;;27.89;64.84;100578.67;1671474;85;20495;-91
2021/07/15 10:17:23;;;;;;;;;;;;;;;;;;;;;
2021/07/15 10:19:43;;;;;;;;;;;;;;;27.60;64.93;100569.28;1660072;86;20653;-90
2021/07/15 10:22:10;;;;;;;;;;;;;;;27.62;64.99;100571.31;1691041;83;20439;-89
2021/07/15 10:24:37;;;;;;;;;;;;;;;27.64;64.83;100568.04;1688801;83;20227;-89
2021/07/15 10:27:11;;;;;;;;;;;;;;;27.69;64.80;100564.00;1653015;85;20640;-89
2021/07/15 10:29:38;;;;;;;;;;;;;;;27.72;64.67;100556.73;1694160;83;20584;-90
2021/07/15 10:32:04;;;;;;;;;;;;;;;27.62;64.44;100554.89;1668830;85;20229;-89
2021/07/15 10:34:31;;;;;;;;;;;;;;;27.51;64.42;100553.66;1664451;85;20459;-89
2021/07/15 10:36:59;;;;;;;;;;;;;;;27.46;64.52;100555.87;1694936;83;20595;-89
2021/07/15 10:39:28;;;;;;;;;;;;;;;27.53;64.54;100562.83;1689639;83;20502;-89
2021/07/15 10:41:57;;;;;;;;;;;;;;;27.62;64.63;100563.34;1658972;85;20205;-89
2021/07/15 10:44:26;;;;;;;;;;;;;;;27.79;64.55;100565.36;1693139;83;20209;-89
2021/07/15 10:46:52;;;;;;;;;;;;;;;27.87;64.20;100569.50;1656775;85;20332;-89
2021/07/15 10:49:20;;;;;;;;;;;;;;;27.92;64.30;100563.28;1675871;84;20400;-90
2021/07/15 10:51:48;;;;;;;;;;;;;;;27.97;64.22;100564.20;1664559;85;20193;-90
2021/07/15 10:54:16;;;;;;;;;;;;;;;27.90;64.07;100565.24;1668913;85;21231;-90
2021/07/15 10:56:46;;;;;;;;;;;;;;;27.95;64.13;100572.80;1670076;84;20228;-90
2021/07/15 10:59:30;;;;;;;;;;;;;;;27.97;64.05;100577.01;1669726;85;20577;-89
2021/07/15 11:02:01;;;;;;;;;;;;;;;28.03;63.90;100568.13;1666894;84;20183;-88
2021/07/15 11:04:44;;;;;;;;;;;;;;;28.11;63.97;100562.94;1705600;82;20441;-90
2021/07/15 11:07:22;;;;;;;;;;;;;;;27.95;63.54;100560.36;1678497;84;20668;-89
2021/07/15 11:09:55;;;;;;;;;;;;;;;27.87;63.89;100562.02;1706127;83;20230;-89
2021/07/15 11:13:01;;;;;;;;;;;;;;;27.78;63.73;100554.38;1687090;84;20218;-91
2021/07/15 11:16:04;;;;;;;;;;;;;;;27.81;63.81;100543.96;1628112;86;20587;-91
2021/07/15 11:18:51;;;;;;;;;;;;;;;27.73;63.63;100543.31;1640191;85;20654;-91
2021/07/15 11:21:32;;;;;;;;;;;;;;;27.67;63.66;100547.36;1632435;86;20558;-89
2021/07/15 11:24:13;;;;;;;;;;;;;;;27.58;63.55;100550.79;1600511;88;20297;-88
2021/07/15 11:26:43;;;;;;;;;;;;;;;27.46;63.56;100556.37;1585945;88;20227;-89
2021/07/15 11:29:18;;;;;;;;;;;;;;;27.34;63.72;100561.77;1596086;88;20254;-89
2021/07/15 11:32:11;;;;;;;;;;;;;;;27.34;63.46;100556.95;1594041;90;20517;-91
2021/07/15 11:34:53;;;;;;;;;;;;;;;27.35;63.58;100541.38;1596067;88;20508;-90
2021/07/15 11:40:39;;;;;;;;;;;;;;;27.51;63.72;100539.54;1566106;90;20568;-74
2021/07/15 11:43:26;;;;;;;;;;;;;;;27.61;63.51;100548.38;1563418;91;20446;-75
2021/07/15 11:46:23;;;;;;;;;;;;;;;27.65;63.44;100555.95;1563844;90;20207;-76
2021/07/15 11:48:52;;;;;;;;;;;;;;;27.65;63.25;100565.73;1505547;93;20558;-75
2021/07/15 11:51:33;;;;;;;;;;;;;;;27.59;63.20;100571.09;1512994;93;20118;-76
2021/07/15 11:54:31;;;;;;;;;;;;;;;27.46;63.03;100566.50;1528746;91;20209;-76
2021/07/15 11:57:03;;;;;;;;;;;;;;;27.28;63.18;100564.96;1543866;91;20138;-75
2021/07/15 11:59:44;;;;;;;;;;;;;;;27.13;63.21;100566.28;1520308;92;20150;-76
2021/07/15 12:02:42;;;;;;;;;;;;;;;27.00;63.29;100562.54;1558542;90;20156;-76
2021/07/15 12:05:29;;;;;;;;;;;;;;;26.89;63.37;100555.11;1586879;88;20190;-76
2021/07/15 12:08:06;;;;;;;;;;;;;;;26.82;63.31;100551.29;1586560;88;20440;-75
2021/07/15 12:10:49;;;;;;;;;;;;;;;26.70;63.27;100553.17;1593179;88;20115;-76
2021/07/15 12:13:16;;;;;;;;;;;;;;;26.57;63.29;100569.27;1587445;88;20115;-76
2021/07/15 12:15:44;;;;;;;;;;;;;;;26.46;63.43;100575.98;1576895;88;20211;-76
2021/07/15 12:18:15;;;;;;;;;;;;;;;26.41;63.36;100582.14;1575435;88;20177;-76
2021/07/15 12:20:51;;;;;;;;;;;;;;;26.30;63.39;100576.85;1611928;87;20144;-76
2021/07/15 12:23:21;;;;;;;;;;;;;;;26.26;63.56;100564.34;1638176;85;20322;-76
2021/07/15 12:25:50;;;;;;;;;;;;;;;26.31;63.70;100550.73;1622576;87;20497;-76
2021/07/15 12:28:24;;;;;;;;;;;;;;;26.36;63.53;100567.94;1662706;84;20186;-76
2021/07/15 12:30:54;;;;;;;;;;;;;;;26.42;63.56;100567.08;1667071;84;20134;-76
2021/07/15 12:33:23;;;;;;;;;;;;;;;26.50;63.56;100573.43;1666699;84;20138;-76
2021/07/15 12:35:51;;;;;;;;;;;;;;;26.61;63.65;100576.00;1668009;84;20137;-76
2021/07/15 12:38:26;;;;;;;;;;;;;;;26.72;63.53;100569.80;1658139;84;20519;-76
2021/07/15 12:41:11;;;;;;;;;;;;;;;26.84;63.52;100578.05;1674916;84;20126;-77
2021/07/15 12:43:42;;;;;;;;;;;;;;;26.98;63.52;100587.05;1655207;84;20465;-75
2021/07/15 12:46:12;;;;;;;;;;;;;;;27.09;63.35;100582.12;1662848;84;20178;-75
2021/07/15 12:48:40;;;;;;;;;;;;;;;27.13;63.21;100576.06;1674688;84;20106;-75
2021/07/15 12:51:06;;;;;;;;;;;;;;;27.20;63.33;100578.55;1668587;84;20127;-75
2021/07/15 12:53:38;;;;;;;;;;;;;;;27.27;63.32;100571.25;1668401;84;20735;-75
2021/07/15 12:56:04;;;;;;;;;;;;;;;27.34;63.27;100573.72;1670373;84;20111;-75